Time;durP1;ratioP1;P1;durP2;ratioP2;P2;SDS_P1;SDS_P2;PMS_P1;PMS_P2;Temp;Humidity;BMP_temperature;BMP_pressure;BME280_temperature;BME280_humidity;BME280_pressure;Samples;Min_cycle;Max_cycle;Signal;HPM_P1;HPM_P2
2022/11/03 00:00:32;;;;;;;200.27;115.93;;;308.10;2304.00;;;;;;5131641;27;20019;-59
2022/11/03 00:02:57;;;;;;;153.95;85.95;;;332.90;2329.60;;;;;;5131851;27;20027;-66
2022/11/03 00:08:07;;;;;;;144.63;79.43;;;308.10;2304.00;;;;;;5132151;27;20114;-59
2022/11/03 00:10:33;;;;;;;144.77;80.07;;;308.10;2304.00;;;;;;5131524;27;20050;-60
2022/11/03 00:12:59;;;;;;;133.10;76.35;;;308.10;2304.00;;;;;;5131533;27;20548;-59
2022/11/03 00:15:24;;;;;;;132.70;77.25;;;308.10;2304.00;;;;;;5131648;27;20019;-62
2022/11/03 00:17:50;;;;;;;138.02;80.25;;;308.10;2304.00;;;;;;5131737;27;20027;-60
2022/11/03 00:20:16;;;;;;;125.80;75.18;;;308.10;2304.00;;;;;;5131725;27;20029;-63
2022/11/03 00:22:41;;;;;;;128.60;74.72;;;332.80;2329.60;;;;;;5131510;27;20073;-64
2022/11/03 00:25:07;;;;;;;136.57;84.45;;;332.90;2329.60;;;;;;5130991;27;20023;-67
2022/11/03 00:27:33;;;;;;;159.90;83.93;;;332.80;2329.60;;;;;;5131534;27;20031;-61
2022/11/03 00:29:58;;;;;;;139.32;79.03;;;308.10;2304.00;;;;;;5131222;27;20404;-63
2022/11/03 00:32:24;;;;;;;170.50;83.30;;;308.10;2304.00;;;;;;5131652;27;20126;-59
2022/11/03 00:34:50;;;;;;;178.82;85.40;;;308.00;2304.00;;;;;;5131497;27;20098;-58
2022/11/03 00:37:15;;;;;;;180.55;89.97;;;307.90;2278.40;;;;;;5131632;27;20038;-59
2022/11/03 00:39:41;;;;;;;141.68;79.53;;;307.90;2176.00;;;;;;5130994;27;20047;-58
2022/11/03 00:42:07;;;;;;;116.82;69.53;;;307.90;2304.00;;;;;;5131444;27;20027;-61
2022/11/03 00:44:32;;;;;;;97.88;61.72;;;307.90;2304.00;;;;;;5112518;27;20041;-59
2022/11/03 00:46:58;;;;;;;87.90;57.63;;;307.90;2304.00;;;;;;5131289;27;20776;-63
2022/11/03 00:49:24;;;;;;;91.13;56.40;;;307.90;2304.00;;;;;;5131222;27;20159;-63
2022/11/03 00:51:50;;;;;;;92.88;57.47;;;307.90;2304.00;;;;;;5130927;27;20035;-63
2022/11/03 00:54:15;;;;;;;95.80;57.90;;;307.90;2304.00;;;;;;5131163;27;20046;-65
2022/11/03 00:56:43;;;;;;;86.15;54.10;;;308.00;2304.00;;;;;;5130717;27;20027;-59
2022/11/03 00:59:09;;;;;;;90.13;56.72;;;308.00;2304.00;;;;;;5131240;27;20029;-61
2022/11/03 01:01:43;;;;;;;88.38;56.10;;;308.00;2304.00;;;;;;5130978;27;20027;-62
2022/11/03 01:06:56;;;;;;;80.82;55.70;;;308.00;2304.00;;;;;;5131180;28;20089;-63
2022/11/03 01:09:30;;;;;;;80.20;49.83;;;307.80;2304.00;;;;;;5130891;28;20062;-65
2022/11/03 01:12:04;;;;;;;74.38;49.42;;;307.90;2304.00;;;;;;5130940;28;20039;-64
2022/11/03 01:14:36;;;;;;;77.72;49.65;;;307.70;2304.00;;;;;;5130717;28;20019;-62
2022/11/03 01:17:06;;;;;;;67.65;44.75;;;307.50;2304.00;;;;;;5130996;28;20042;-64
2022/11/03 01:19:31;;;;;;;71.93;44.83;;;307.30;2304.00;;;;;;5131172;28;20098;-65
2022/11/03 01:21:57;;;;;;;64.13;39.28;;;307.30;2304.00;;;;;;5130873;28;20059;-59
2022/11/03 01:24:23;;;;;;;66.07;41.97;;;282.40;2278.40;;;;;;5130696;28;20106;-65
2022/11/03 01:26:49;;;;;;;63.80;41.95;;;282.50;2278.40;;;;;;5130705;28;20061;-62
2022/11/03 01:29:14;;;;;;;59.10;40.42;;;282.50;2278.40;;;;;;5130790;28;20529;-59
2022/11/03 01:31:40;;;;;;;74.85;45.58;;;282.50;2278.40;;;;;;5130599;28;20039;-69
2022/11/03 01:34:06;;;;;;;67.15;44.97;;;282.20;2278.40;;;;;;5130943;28;20027;-65
2022/11/03 01:36:31;;;;;;;66.57;40.53;;;282.20;2278.40;;;;;;5132046;27;20574;-66
2022/11/03 01:38:57;;;;;;;64.60;40.35;;;282.20;2278.40;;;;;;5134620;27;20034;-62
2022/11/03 01:41:26;;;;;;;61.90;39.20;;;282.20;2278.40;;;;;;5134491;27;20095;-63
2022/11/03 01:44:12;;;;;;;66.60;40.08;;;282.20;2278.40;;;;;;5134692;27;20023;-61
2022/11/03 01:46:48;;;;;;;62.55;37.40;;;282.20;2278.40;;;;;;5120158;27;20176;-59
2022/11/03 01:49:24;;;;;;;65.10;40.13;;;282.20;2278.40;;;;;;5134732;27;20027;-61
2022/11/03 01:52:08;;;;;;;62.22;38.63;;;282.20;2278.40;;;;;;5134070;27;20038;-64
2022/11/03 01:54:36;;;;;;;69.15;41.72;;;282.10;2278.40;;;;;;5134403;27;20438;-63
2022/11/03 01:57:07;;;;;;;63.47;40.63;;;282.10;2278.40;;;;;;5134462;27;20103;-68
2022/11/03 01:59:33;;;;;;;64.05;42.20;;;282.00;2278.40;;;;;;5134203;27;20023;-67
2022/11/03 02:01:59;;;;;;;67.03;42.05;;;282.00;2278.40;;;;;;5134035;27;20055;-61
2022/11/03 02:04:29;;;;;;;71.30;45.28;;;282.00;2278.40;;;;;;5134578;27;20055;-65
2022/11/03 02:07:14;;;;;;;86.43;51.65;;;282.00;2278.40;;;;;;5134366;27;20019;-65
2022/11/03 02:09:39;;;;;;;67.35;42.17;;;282.00;2278.40;;;;;;5134060;27;20021;-66
2022/11/03 02:12:07;;;;;;;64.22;42.15;;;282.00;2278.40;;;;;;5134257;27;20039;-64
2022/11/03 02:14:44;;;;;;;68.90;41.08;;;281.90;2278.40;;;;;;5134315;27;20019;-67
2022/11/03 02:17:12;;;;;;;74.57;40.67;;;281.70;2278.40;;;;;;5134035;27;20015;-66
2022/11/03 02:19:49;;;;;;;59.70;40.72;;;256.80;2252.80;;;;;;5134479;27;20428;-66
2022/11/03 02:22:55;;;;;;;63.75;34.65;;;256.60;2048.00;;;;;;5134269;27;20050;-67
2022/11/03 02:25:36;;;;;;;54.65;34.95;;;256.50;2124.80;;;;;;5050352;28;20029;-64
2022/11/03 02:28:04;;;;;;;50.97;34.50;;;256.60;2252.80;;;;;;5050403;28;20459;-68
2022/11/03 02:30:58;;;;;;;60.15;36.63;;;256.70;2252.80;;;;;;5050328;28;20492;-62
2022/11/03 02:33:23;;;;;;;54.78;34.72;;;256.60;2252.80;;;;;;5010547;28;20126;-64
2022/11/03 02:36:02;;;;;;;47.15;30.35;;;256.30;2252.80;;;;;;5010650;28;20576;-64
2022/11/03 02:38:30;;;;;;;44.33;28.48;;;256.10;2252.80;;;;;;5010559;28;20076;-68
2022/11/03 02:40:59;;;;;;;45.33;29.98;;;256.00;2252.80;;;;;;5010561;28;20150;-66
2022/11/03 02:43:26;;;;;;;45.88;30.80;;;256.00;2201.60;;;;;;5010464;28;20484;-60
2022/11/03 02:45:54;;;;;;;54.75;31.98;;;256.10;2201.60;;;;;;5010245;28;20022;-67
2022/11/03 02:48:19;;;;;;;48.25;29.98;;;256.20;2252.80;;;;;;5009191;28;20045;-63
2022/11/03 02:50:46;;;;;;;47.88;30.52;;;256.30;2252.80;;;;;;5010243;28;20042;-65
2022/11/03 02:53:14;;;;;;;47.53;30.30;;;256.20;2252.80;;;;;;5010109;28;20120;-60
2022/11/03 02:55:50;;;;;;;40.63;28.55;;;256.40;2252.80;;;;;;5010201;28;20035;-63
2022/11/03 02:58:28;;;;;;;40.97;25.98;;;256.50;2252.80;;;;;;5010406;28;20045;-62
2022/11/03 03:01:17;;;;;;;42.75;26.23;;;256.60;2252.80;;;;;;5011650;28;20022;-65
2022/11/03 03:04:05;;;;;;;38.35;26.70;;;256.50;2252.80;;;;;;5069664;28;20067;-60
2022/11/03 03:06:45;;;;;;;43.40;26.00;;;256.50;2252.80;;;;;;5069781;28;20031;-63
2022/11/03 03:09:21;;;;;;;37.22;25.08;;;256.60;2252.80;;;;;;5070247;28;20032;-62
2022/11/03 03:11:51;;;;;;;38.35;24.95;;;256.60;2252.80;;;;;;5132980;27;20430;-66
2022/11/03 03:14:27;;;;;;;41.58;26.15;;;256.50;2252.80;;;;;;5133312;27;20031;-61
2022/11/03 03:17:00;;;;;;;37.88;26.02;;;256.30;2252.80;;;;;;5133004;27;20020;-61
2022/11/03 03:19:47;;;;;;;41.28;25.70;;;256.40;2252.80;;;;;;5132976;27;20023;-62
2022/11/03 03:22:33;;;;;;;42.40;24.63;;;256.20;2252.80;;;;;;5132713;27;20027;-65
2022/11/03 03:25:12;;;;;;;35.58;23.88;;;256.00;2252.80;;;;;;5132924;27;20532;-63
2022/11/03 03:27:42;;;;;;;37.03;24.90;;;256.00;2252.80;;;;;;5132953;27;20107;-65
2022/11/03 03:30:08;;;;;;;35.25;25.33;;;256.00;2252.80;;;;;;5133160;27;20369;-65
2022/11/03 03:32:38;;;;;;;32.55;23.48;;;256.20;2252.80;;;;;;5132607;27;20560;-66
2022/11/03 03:35:07;;;;;;;39.35;25.58;;;256.20;2252.80;;;;;;5132640;27;20034;-63
2022/11/03 03:37:36;;;;;;;41.67;25.35;;;256.30;2252.80;;;;;;5132625;27;20078;-68
2022/11/03 03:40:07;;;;;;;34.58;23.77;;;256.30;2252.80;;;;;;5132099;27;20254;-59
2022/11/03 03:42:35;;;;;;;37.10;24.15;;;256.50;2252.80;;;;;;5132266;27;20079;-67
2022/11/03 03:45:02;;;;;;;39.97;26.45;;;256.50;2252.80;;;;;;5132268;27;20486;-67
2022/11/03 03:47:31;;;;;;;42.33;28.60;;;256.50;2252.80;;;;;;5132143;27;20023;-64
2022/11/03 03:49:58;;;;;;;35.00;25.58;;;256.60;2252.80;;;;;;5132526;27;20026;-66
2022/11/03 03:52:24;;;;;;;35.25;24.55;;;256.50;2252.80;;;;;;5132010;27;20080;-68
2022/11/03 03:54:50;;;;;;;39.30;27.13;;;256.40;2252.80;;;;;;5132131;27;20023;-65
2022/11/03 03:57:19;;;;;;;42.50;28.17;;;256.40;2252.80;;;;;;5132105;27;20023;-63
2022/11/03 03:59:45;;;;;;;40.08;26.23;;;256.40;2252.80;;;;;;5131989;27;20035;-61
2022/11/03 04:02:11;;;;;;;40.63;27.50;;;256.50;2252.80;;;;;;5131646;27;20034;-61
2022/11/03 04:04:37;;;;;;;44.88;30.45;;;256.50;2252.80;;;;;;5132221;27;20022;-62
2022/11/03 04:09:48;;;;;;;37.60;25.73;;;256.40;2252.80;;;;;;5132233;27;20372;-62
2022/11/03 04:23:13;;;;;;;37.85;24.98;;;256.20;2252.80;;;;;;5131894;27;20103;-68
2022/11/03 04:25:40;;;;;;;35.13;27.05;;;256.20;2252.80;;;;;;5131485;27;20023;-60
2022/11/03 04:28:14;;;;;;;36.35;24.05;;;256.20;2252.80;;;;;;5131738;27;20034;-63
2022/11/03 04:30:40;;;;;;;;;;;256.20;2252.80;;;;;;5131909;27;20025;-64
2022/11/03 04:33:19;;;;;;;34.83;23.80;;;256.20;2252.80;;;;;;5131377;27;19998;-60
2022/11/03 04:35:46;;;;;;;31.02;23.15;;;256.10;2252.80;;;;;;5131603;27;20027;-66
2022/11/03 04:38:15;;;;;;;34.42;23.08;;;256.10;2252.80;;;;;;5131205;27;20110;-61
2022/11/03 04:40:46;;;;;;;35.28;23.90;;;256.10;2252.80;;;;;;5131238;27;20092;-68
2022/11/03 04:43:17;;;;;;;37.05;27.02;;;256.00;2252.80;;;;;;5131247;27;20473;-62
2022/11/03 04:45:45;;;;;;;39.03;26.85;;;256.00;2252.80;;;;;;5131065;27;20030;-69
2022/11/03 04:48:18;;;;;;;41.28;26.58;;;256.00;2252.80;;;;;;5131021;27;20055;-60
2022/11/03 04:50:46;;;;;;;44.08;30.75;;;256.00;2252.80;;;;;;5131241;27;20088;-65
2022/11/03 04:53:14;;;;;;;47.78;38.80;;;231.30;2252.80;;;;;;5131216;27;20046;-63
2022/11/03 04:55:40;;;;;;;49.40;36.22;;;231.00;2252.80;;;;;;5131215;27;20043;-65
2022/11/03 04:58:25;;;;;;;46.92;34.33;;;231.00;2252.80;;;;;;5131345;27;20087;-62
2022/11/03 05:00:52;;;;;;;41.70;30.20;;;231.00;2252.80;;;;;;5130978;27;20031;-65
2022/11/03 05:03:34;;;;;;;39.30;28.23;;;231.10;2252.80;;;;;;5131250;27;20553;-60
2022/11/03 05:06:26;;;;;;;39.40;28.65;;;231.20;2252.80;;;;;;5130838;28;20484;-62
2022/11/03 05:09:01;;;;;;;50.08;32.53;;;231.10;2252.80;;;;;;5130654;28;20100;-59
2022/11/03 05:11:45;;;;;;;47.92;30.63;;;231.10;2252.80;;;;;;5132094;27;20084;-61
2022/11/03 05:14:26;;;;;;;42.50;30.33;;;231.20;2252.80;;;;;;5135440;27;20487;-64
2022/11/03 05:16:54;;;;;;;42.88;30.27;;;231.20;2252.80;;;;;;5134972;27;20511;-62
2022/11/03 05:19:42;;;;;;;46.47;31.55;;;231.10;2252.80;;;;;;5135102;27;20034;-63
2022/11/03 05:22:15;;;;;;;51.97;36.97;;;231.10;2252.80;;;;;;5134769;27;20027;-65
2022/11/03 05:24:41;;;;;;;52.95;36.03;;;231.20;2252.80;;;;;;5134862;27;20027;-61
2022/11/03 05:27:18;;;;;;;56.17;40.05;;;231.20;2252.80;;;;;;5135318;27;20027;-63
2022/11/03 05:29:44;;;;;;;62.90;44.90;;;231.30;2252.80;;;;;;5134970;27;20380;-59
2022/11/03 05:32:18;;;;;;;55.72;40.13;;;256.00;2252.80;;;;;;5134787;27;20104;-61
2022/11/03 05:34:46;;;;;;;57.33;39.30;;;256.20;2252.80;;;;;;5134792;27;20488;-63
2022/11/03 05:37:28;;;;;;;49.17;34.92;;;256.30;2252.80;;;;;;5134708;27;20472;-64
2022/11/03 05:40:00;;;;;;;45.92;33.17;;;256.40;2252.80;;;;;;5134636;27;20100;-66
2022/11/03 05:42:35;;;;;;;44.72;32.60;;;256.50;2252.80;;;;;;5134991;27;20469;-63
2022/11/03 05:45:31;;;;;;;41.13;30.70;;;256.70;2252.80;;;;;;5134525;27;20455;-64
2022/11/03 05:47:57;;;;;;;42.40;29.38;;;256.70;2252.80;;;;;;5133855;27;20042;-65
2022/11/03 05:50:29;;;;;;;44.50;31.73;;;256.70;2252.80;;;;;;5134466;27;20472;-61
2022/11/03 05:53:12;;;;;;;40.13;29.40;;;256.60;2252.80;;;;;;5134525;27;20481;-66
2022/11/03 05:55:39;;;;;;;38.10;27.15;;;256.70;2252.80;;;;;;5134606;27;20015;-63
2022/11/03 05:58:32;;;;;;;39.53;27.38;;;256.90;2252.80;;;;;;5134532;27;20027;-65
2022/11/03 06:01:01;;;;;;;46.35;30.02;;;256.90;2252.80;;;;;;5134813;27;20068;-66
2022/11/03 06:03:29;;;;;;;35.05;26.60;;;256.90;2252.80;;;;;;5134424;27;20042;-60
2022/11/03 06:05:57;;;;;;;37.17;22.75;;;256.90;2252.80;;;;;;5134335;27;20503;-60
2022/11/03 06:08:32;;;;;;;29.25;19.80;;;281.60;2278.40;;;;;;5133924;27;20035;-63
2022/11/03 06:10:59;;;;;;;34.17;25.58;;;256.90;2252.80;;;;;;5134506;27;20076;-65
2022/11/03 06:13:36;;;;;;;37.83;23.95;;;281.80;2278.40;;;;;;5134293;27;20045;-63
2022/11/03 06:16:20;;;;;;;37.30;25.77;;;281.90;2278.40;;;;;;5133825;27;20034;-61
2022/11/03 06:18:46;;;;;;;40.30;27.63;;;282.00;2278.40;;;;;;5133945;27;20109;-67
2022/11/03 06:21:18;;;;;;;42.28;28.88;;;282.20;2278.40;;;;;;5133847;27;20064;-68
2022/11/03 06:23:44;;;;;;;59.95;35.67;;;282.40;2278.40;;;;;;5133858;27;20441;-64
2022/11/03 06:26:17;;;;;;;104.97;41.47;;;282.50;2278.40;;;;;;5133978;27;20020;-62
2022/11/03 06:28:44;;;;;;;72.97;38.33;;;307.20;2304.00;;;;;;5133818;27;20030;-65
2022/11/03 06:31:28;;;;;;;111.30;42.88;;;282.50;2278.40;;;;;;5133596;27;20461;-67
2022/11/03 06:33:55;;;;;;;85.95;38.63;;;282.30;2278.40;;;;;;5133654;27;20121;-63
2022/11/03 06:36:26;;;;;;;105.88;41.10;;;282.40;2278.40;;;;;;5133611;27;20022;-68
2022/11/03 06:39:00;;;;;;;118.07;41.33;;;282.40;2278.40;;;;;;5133271;27;20117;-60
2022/11/03 06:41:28;;;;;;;68.13;36.47;;;282.30;2278.40;;;;;;5133650;27;20480;-65
2022/11/03 06:43:55;;;;;;;64.35;39.97;;;282.40;2278.40;;;;;;5133601;27;20027;-68
2022/11/03 06:46:23;;;;;;;121.45;45.58;;;307.30;2304.00;;;;;;5133250;27;20055;-69
2022/11/03 06:48:51;;;;;;;133.07;65.00;;;307.40;2304.00;;;;;;5133466;27;20019;-66
2022/11/03 06:51:20;;;;;;;96.95;52.80;;;307.50;2304.00;;;;;;5133388;27;20023;-63
2022/11/03 06:53:48;;;;;;;275.55;94.57;;;307.60;2304.00;;;;;;5133330;27;20075;-66
2022/11/03 06:56:19;;;;;;;156.60;80.82;;;307.30;2304.00;;;;;;5133291;27;20087;-64
2022/11/03 06:58:47;;;;;;;107.00;60.38;;;307.50;2304.00;;;;;;5133374;27;20015;-59
2022/11/03 07:01:20;;;;;;;119.40;60.75;;;307.70;2304.00;;;;;;5133248;27;20027;-68
2022/11/03 07:03:47;;;;;;;123.18;60.58;;;307.80;2304.00;;;;;;5135621;27;20069;-67
2022/11/03 07:06:23;;;;;;;163.75;66.05;;;307.90;2304.00;;;;;;5152556;27;20058;-61
2022/11/03 07:08:54;;;;;;;109.43;60.95;;;307.80;2304.00;;;;;;5147231;27;20057;-61
2022/11/03 07:11:25;;;;;;;108.85;60.92;;;307.80;2304.00;;;;;;5141401;27;20121;-61
2022/11/03 07:13:54;;;;;;;99.35;57.10;;;307.90;2304.00;;;;;;5148203;27;20151;-64
2022/11/03 07:16:44;;;;;;;102.38;59.75;;;308.00;2304.00;;;;;;5148370;27;20015;-61
2022/11/03 07:19:38;;;;;;;96.90;58.67;;;332.90;2329.60;;;;;;5148112;27;20023;-67
2022/11/03 07:22:25;;;;;;;183.65;62.45;;;333.20;2329.60;;;;;;5133372;27;20035;-61
2022/11/03 07:24:54;;;;;;;106.78;60.58;;;332.90;2329.60;;;;;;5135276;27;20075;-67
2022/11/03 07:27:25;;;;;;;88.20;52.35;;;333.20;2329.60;;;;;;5138342;27;20016;-66
2022/11/03 07:29:57;;;;;;;93.93;52.70;;;333.40;2329.60;;;;;;5147036;27;20515;-62
2022/11/03 07:32:30;;;;;;;80.78;51.17;;;333.70;2329.60;;;;;;5152953;27;20059;-61
2022/11/03 07:35:24;;;;;;;82.35;51.92;;;358.60;2329.60;;;;;;5152798;27;20022;-60
2022/11/03 07:37:52;;;;;;;84.60;52.90;;;358.80;2329.60;;;;;;5048838;28;20029;-61
2022/11/03 07:40:26;;;;;;;86.45;55.95;;;358.60;2329.60;;;;;;5048924;28;20099;-59
2022/11/03 07:42:57;;;;;;;103.88;59.38;;;358.80;2329.60;;;;;;5049175;28;20107;-61
2022/11/03 07:45:38;;;;;;;106.93;66.07;;;358.50;2329.60;;;;;;5048844;28;20100;-61
2022/11/03 07:48:27;;;;;;;107.38;66.03;;;333.50;2329.60;;;;;;5049007;28;20032;-66
2022/11/03 07:50:59;;;;;;;129.95;70.57;;;358.80;2329.60;;;;;;5048991;28;20025;-67
2022/11/03 07:53:41;;;;;;;115.78;70.72;;;358.70;2329.60;;;;;;5048851;28;20468;-61
2022/11/03 07:56:22;;;;;;;112.97;69.80;;;359.10;2329.60;;;;;;5049038;28;20744;-61
2022/11/03 07:58:57;;;;;;;110.50;66.97;;;384.40;2329.60;;;;;;5048826;28;20021;-60
2022/11/03 08:01:35;;;;;;;124.38;74.85;;;384.60;2329.60;;;;;;5048611;28;20514;-60
2022/11/03 08:04:04;;;;;;;111.55;70.32;;;410.10;2355.20;;;;;;5048660;28;20031;-59
2022/11/03 08:06:30;;;;;;;104.70;62.45;;;435.30;2355.20;;;;;;5048437;28;20036;-61
2022/11/03 08:08:56;;;;;;;97.53;65.45;;;461.00;2380.80;;;;;;5048545;28;20045;-60
2022/11/03 08:11:23;;;;;;;93.82;62.65;;;460.90;2380.80;;;;;;5039999;28;20067;-61
2022/11/03 08:13:52;;;;;;;80.00;56.88;;;435.70;2355.20;;;;;;5042141;27;20022;-67
2022/11/03 08:16:18;;;;;;;79.95;55.70;;;486.40;2380.80;;;;;;5131528;27;20055;-61
2022/11/03 08:18:44;;;;;;;83.07;56.03;;;486.40;2380.80;;;;;;5137223;27;20030;-61
2022/11/03 08:21:11;;;;;;;94.72;60.53;;;461.30;2380.80;;;;;;5142888;27;20527;-61
2022/11/03 08:23:37;;;;;;;84.07;58.33;;;461.30;2380.80;;;;;;5136400;27;20110;-61
2022/11/03 08:26:03;;;;;;;78.65;56.60;;;461.70;2380.80;;;;;;5131579;27;20522;-62
2022/11/03 08:28:29;;;;;;;92.00;57.97;;;486.90;2380.80;;;;;;5136248;27;20117;-59
2022/11/03 08:31:00;;;;;;;74.25;55.50;;;512.10;2380.80;;;;;;5134936;27;20023;-61
2022/11/03 08:33:27;;;;;;;92.53;62.80;;;537.70;2252.80;;;;;;5134152;27;20031;-67
2022/11/03 08:35:53;;;;;;;80.70;60.65;;;537.80;2227.20;;;;;;5139077;27;20022;-60
2022/11/03 08:38:19;;;;;;;89.78;61.85;;;538.50;2150.40;;;;;;5138380;27;20553;-60
2022/11/03 08:40:44;;;;;;;82.00;62.40;;;563.20;2150.40;;;;;;5134102;27;20093;-61
2022/11/03 08:43:10;;;;;;;79.97;59.95;;;537.80;2176.00;;;;;;5137075;27;20114;-62
2022/11/03 08:45:36;;;;;;;79.32;58.50;;;537.90;2150.40;;;;;;5130603;27;20031;-62
2022/11/03 08:48:02;;;;;;;77.47;57.75;;;537.60;2201.60;;;;;;5131027;27;20023;-60
2022/11/03 08:50:29;;;;;;;71.35;57.42;;;563.50;2099.20;;;;;;5149331;27;20067;-61
2022/11/03 08:52:54;;;;;;;73.60;53.70;;;538.00;2150.40;;;;;;5151925;27;20035;-64
2022/11/03 08:55:20;;;;;;;75.35;59.75;;;537.80;2176.00;;;;;;5151751;27;20030;-62
2022/11/03 08:57:46;;;;;;;74.28;56.90;;;563.20;2124.80;;;;;;5151988;27;20504;-60
2022/11/03 09:00:12;;;;;;;64.30;53.28;;;564.10;2073.60;;;;;;5151691;27;20050;-65
2022/11/03 09:02:38;;;;;;;68.80;54.45;;;588.90;1996.80;;;;;;5151720;27;20098;-61
2022/11/03 09:05:06;;;;;;;65.85;50.13;;;589.20;1996.80;;;;;;5141994;27;20118;-62
2022/11/03 09:07:32;;;;;;;72.28;49.88;;;589.30;1920.00;;;;;;5142825;27;20076;-60
2022/11/03 09:09:58;;;;;;;67.72;56.22;;;563.60;2022.40;;;;;;5130836;28;20033;-59
2022/11/03 09:12:23;;;;;;;74.07;57.92;;;589.00;1971.20;;;;;;5130880;27;20039;-57
2022/11/03 09:14:49;;;;;;;77.60;59.03;;;564.10;1996.80;;;;;;5135737;27;20106;-63
2022/11/03 09:17:14;;;;;;;64.47;52.85;;;538.30;2073.60;;;;;;5151701;27;20019;-62
2022/11/03 09:19:40;;;;;;;62.60;49.42;;;512.90;2150.40;;;;;;5151566;27;20037;-64
2022/11/03 09:22:06;;;;;;;59.45;48.72;;;512.80;2150.40;;;;;;5147220;27;20022;-58
2022/11/03 09:24:32;;;;;;;65.35;48.92;;;487.20;2252.80;;;;;;5140959;27;20061;-66
2022/11/03 09:26:57;;;;;;;53.13;42.17;;;486.70;2304.00;;;;;;5139893;27;20025;-59
2022/11/03 09:29:23;;;;;;;58.33;42.10;;;486.40;2380.80;;;;;;5141418;27;20479;-65
2022/11/03 09:31:49;;;;;;;58.88;40.40;;;461.50;2380.80;;;;;;5149609;27;20500;-64
2022/11/03 09:34:14;;;;;;;53.78;41.05;;;461.40;2380.80;;;;;;5143121;27;20038;-64
2022/11/03 09:36:40;;;;;;;49.47;38.70;;;461.20;2380.80;;;;;;5133516;27;20037;-61
2022/11/03 09:39:06;;;;;;;55.80;40.33;;;461.10;2380.80;;;;;;5146901;27;20027;-64
2022/11/03 09:41:32;;;;;;;58.75;39.22;;;460.90;2380.80;;;;;;5130934;27;20097;-65
2022/11/03 09:43:59;;;;;;;54.05;38.13;;;436.10;2355.20;;;;;;5140112;27;20025;-65
2022/11/03 09:46:27;;;;;;;58.85;39.58;;;435.60;2355.20;;;;;;5138375;27;20031;-65
2022/11/03 09:48:54;;;;;;;50.97;37.00;;;435.80;2355.20;;;;;;5130297;28;20023;-65
2022/11/03 09:51:22;;;;;;;64.30;38.97;;;435.60;2355.20;;;;;;5136998;27;20098;-59
2022/11/03 09:53:48;;;;;;;53.58;35.47;;;435.90;2355.20;;;;;;5140013;27;20023;-61
2022/11/03 09:56:20;;;;;;;54.60;31.13;;;435.90;2355.20;;;;;;5141496;27;20032;-60
2022/11/03 09:58:46;;;;;;;52.15;34.28;;;435.90;2355.20;;;;;;5144288;27;20019;-64
2022/11/03 10:01:12;;;;;;;49.42;31.85;;;435.90;2355.20;;;;;;5148971;27;20426;-61
2022/11/03 10:03:40;;;;;;;58.95;31.90;;;435.80;2355.20;;;;;;5155112;27;20034;-67
2022/11/03 10:06:07;;;;;;;53.83;33.65;;;436.00;2355.20;;;;;;5155237;27;20023;-62
2022/11/03 10:08:36;;;;;;;52.50;32.90;;;435.70;2355.20;;;;;;5154740;27;20034;-63
2022/11/03 10:11:04;;;;;;;47.33;31.38;;;435.80;2355.20;;;;;;5154826;27;20429;-65
2022/11/03 10:13:37;;;;;;;42.55;29.73;;;435.90;2355.20;;;;;;5155123;27;20041;-64
2022/11/03 10:16:06;;;;;;;47.67;30.92;;;435.80;2355.20;;;;;;5154565;27;20110;-65
2022/11/03 10:18:34;;;;;;;42.50;29.42;;;435.80;2355.20;;;;;;5154617;27;20027;-66
2022/11/03 10:21:05;;;;;;;42.65;31.10;;;435.70;2355.20;;;;;;5154803;27;20440;-65
2022/11/03 10:23:31;;;;;;;52.60;32.35;;;435.60;2355.20;;;;;;5154661;27;20054;-65
2022/11/03 10:26:11;;;;;;;49.83;30.70;;;435.50;2355.20;;;;;;5154790;27;20046;-63
2022/11/03 10:28:37;;;;;;;34.83;26.63;;;435.70;2355.20;;;;;;5154907;27;20049;-65
2022/11/03 10:31:18;;;;;;;45.50;29.65;;;435.60;2355.20;;;;;;5154699;27;20075;-65
2022/11/03 10:33:54;;;;;;;48.65;33.60;;;435.50;2355.20;;;;;;5154640;27;20031;-65
2022/11/03 10:36:26;;;;;;;44.15;29.48;;;435.50;2355.20;;;;;;5154327;27;20023;-64
2022/11/03 10:38:52;;;;;;;35.55;26.73;;;435.50;2355.20;;;;;;5154235;27;20121;-63
2022/11/03 10:41:22;;;;;;;41.00;26.30;;;435.50;2355.20;;;;;;5154455;27;20038;-65
2022/11/03 10:44:18;;;;;;;42.00;30.15;;;435.60;2355.20;;;;;;5154580;27;20023;-62
2022/11/03 10:47:03;;;;;;;34.78;26.40;;;435.70;2355.20;;;;;;5154365;27;20031;-64
2022/11/03 10:49:37;;;;;;;43.40;27.25;;;435.60;2355.20;;;;;;5154055;27;20098;-63
2022/11/03 10:52:26;;;;;;;44.67;29.10;;;435.70;2355.20;;;;;;5154168;27;20038;-64
2022/11/03 10:54:55;;;;;;;49.30;34.97;;;435.70;2355.20;;;;;;5154006;27;20033;-64
2022/11/03 10:57:22;;;;;;;41.03;27.48;;;435.90;2355.20;;;;;;5153903;27;20456;-65
2022/11/03 10:59:50;;;;;;;35.30;25.25;;;460.80;2380.80;;;;;;5154039;27;20037;-62
2022/11/03 11:02:24;;;;;;;36.83;22.52;;;460.80;2380.80;;;;;;5153998;27;20075;-66
2022/11/03 11:04:58;;;;;;;35.83;22.58;;;436.10;2355.20;;;;;;5153940;27;20380;-64
2022/11/03 11:07:33;;;;;;;27.80;21.83;;;436.10;2355.20;;;;;;5153754;27;20110;-65
2022/11/03 11:10:16;;;;;;;30.40;20.98;;;460.80;2380.80;;;;;;5152899;27;20075;-59
2022/11/03 11:13:12;;;;;;;29.08;19.50;;;436.10;2355.20;;;;;;5153532;27;20476;-66
2022/11/03 11:15:43;;;;;;;30.80;20.90;;;460.80;2380.80;;;;;;5153915;27;20042;-59
2022/11/03 11:18:09;;;;;;;28.25;16.48;;;460.80;2380.80;;;;;;5153748;27;20916;-59
2022/11/03 11:20:35;;;;;;;28.15;17.98;;;460.90;2380.80;;;;;;5153739;27;20030;-60
2022/11/03 11:23:26;;;;;;;24.60;16.17;;;460.90;2380.80;;;;;;5153573;27;20074;-60
2022/11/03 11:26:09;;;;;;;27.30;17.05;;;460.90;2380.80;;;;;;5153674;27;20075;-60
2022/11/03 11:28:40;;;;;;;26.45;18.48;;;460.90;2380.80;;;;;;5153705;27;20466;-62
2022/11/03 11:31:31;;;;;;;27.45;19.33;;;460.90;2380.80;;;;;;5153512;27;20023;-65
2022/11/03 11:34:15;;;;;;;30.40;19.65;;;460.90;2380.80;;;;;;5153361;27;20122;-63
2022/11/03 11:36:43;;;;;;;23.98;17.00;;;460.80;2380.80;;;;;;5153231;27;20031;-63
2022/11/03 11:39:32;;;;;;;24.88;18.23;;;460.90;2380.80;;;;;;5153380;27;20519;-61
2022/11/03 11:42:13;;;;;;;31.05;19.02;;;460.90;2380.80;;;;;;5153345;27;20023;-62
2022/11/03 11:44:39;;;;;;;30.58;19.90;;;461.10;2380.80;;;;;;5153607;27;20026;-64
2022/11/03 11:47:24;;;;;;;31.52;20.70;;;461.10;2380.80;;;;;;5153398;27;20357;-65
2022/11/03 11:50:06;;;;;;;30.65;19.67;;;461.10;2380.80;;;;;;5152824;27;20494;-60
2022/11/03 11:52:40;;;;;;;29.95;20.70;;;461.20;2380.80;;;;;;5152639;27;20039;-64
2022/11/03 11:55:18;;;;;;;38.78;23.10;;;461.50;2380.80;;;;;;5152949;27;20023;-63
2022/11/03 11:57:44;;;;;;;32.35;22.25;;;461.30;2380.80;;;;;;5152873;27;20015;-64
2022/11/03 12:00:19;;;;;;;27.10;20.55;;;461.50;2380.80;;;;;;5152640;27;20044;-63
2022/11/03 12:02:46;;;;;;;35.75;25.15;;;461.70;2380.80;;;;;;5152763;27;20425;-64
2022/11/03 12:05:22;;;;;;;36.05;24.08;;;461.60;2380.80;;;;;;5152513;27;20019;-61
2022/11/03 12:07:49;;;;;;;36.88;26.65;;;461.40;2380.80;;;;;;5152888;27;20033;-64
2022/11/03 12:10:16;;;;;;;38.65;26.33;;;461.40;2380.80;;;;;;5152695;27;20102;-62
2022/11/03 12:12:42;;;;;;;42.50;28.58;;;461.40;2380.80;;;;;;5152449;27;20033;-60
2022/11/03 12:15:45;;;;;;;49.08;32.97;;;461.50;2380.80;;;;;;5152639;27;20476;-63
2022/11/03 12:18:37;;;;;;;42.00;27.07;;;461.50;2380.80;;;;;;5152179;27;20023;-61
2022/11/03 12:21:06;;;;;;;45.45;30.83;;;461.50;2380.80;;;;;;5152121;27;20095;-62
2022/11/03 12:23:45;;;;;;;42.10;29.98;;;486.40;2380.80;;;;;;5152222;27;20492;-63
2022/11/03 12:26:38;;;;;;;61.55;38.97;;;486.40;2380.80;;;;;;5152103;27;20022;-62
2022/11/03 12:29:06;;;;;;;43.80;28.23;;;486.50;2380.80;;;;;;5152021;27;20037;-63
2022/11/03 12:31:32;;;;;;;42.20;25.23;;;486.50;2380.80;;;;;;5152013;27;20472;-63
2022/11/03 12:33:58;;;;;;;32.42;25.42;;;461.70;2380.80;;;;;;5152255;27;20033;-63
2022/11/03 12:36:23;;;;;;;36.40;26.10;;;461.70;2380.80;;;;;;5152143;27;20053;-62
2022/11/03 12:38:49;;;;;;;45.17;27.63;;;461.70;2380.80;;;;;;5151801;27;20018;-60